createdAt,value
2018-08-17T00:37:26.071Z,25.8
2018-08-17T00:38:15.853Z,25.7
2018-08-17T00:39:06.213Z,25.7
2018-08-17T00:39:56.266Z,25.8
2018-08-17T00:40:46.044Z,25.7
2018-08-17T00:41:36.378Z,25.7
2018-08-17T00:42:26.448Z,25.7
2018-08-17T00:43:16.242Z,25.7
2018-08-17T00:44:06.301Z,25.7
2018-08-17T00:44:56.357Z,25.7
2018-08-17T00:45:46.705Z,25.7
2018-08-17T00:46:36.772Z,25.7
2018-08-17T00:47:26.826Z,25.7
2018-08-17T00:48:16.619Z,25.8
2018-08-17T00:49:06.996Z,25.7
2018-08-17T00:49:56.458Z,25.7
2018-08-17T00:50:47.094Z,25.7
2018-08-17T00:51:37.145Z,25.8
2018-08-17T00:52:27.260Z,25.7
2018-08-17T00:53:16.999Z,25.7
2018-08-17T00:54:07.361Z,25.8
2018-08-17T00:54:57.404Z,25.7
2018-08-17T00:55:47.195Z,25.7
2018-08-17T00:56:37.547Z,25.7
2018-08-17T00:57:27.606Z,25.7
2018-08-17T00:58:17.672Z,25.8
2018-08-17T00:59:07.757Z,25.7
2018-08-17T00:59:57.814Z,25.7
2018-08-17T01:00:47.857Z,25.7
2018-08-17T01:01:37.926Z,25.8
2018-08-17T01:02:27.708Z,25.7
2018-08-17T01:03:17.786Z,25.7
2018-08-17T01:04:08.127Z,25.7
2018-08-17T01:04:58.177Z,25.7
2018-08-17T01:05:48.243Z,25.8
2018-08-17T01:06:38.305Z,25.8
2018-08-17T01:07:28.376Z,25.7
2018-08-17T01:08:18.442Z,25.7
2018-08-17T01:09:08.499Z,25.7
2018-08-17T01:09:58.302Z,25.8
2018-08-17T01:10:48.639Z,25.8
2018-08-17T01:11:38.219Z,25.7
2018-08-17T01:12:28.771Z,25.8
2018-08-17T01:13:18.852Z,25.8
2018-08-17T01:14:08.895Z,25.8
2018-08-17T01:14:58.960Z,25.8
2018-08-17T01:15:48.740Z,25.7
2018-08-17T01:16:38.814Z,25.8
2018-08-17T01:17:29.163Z,25.8
2018-08-17T01:18:19.261Z,25.8
2018-08-17T01:19:09.281Z,25.7
2018-08-17T01:19:59.357Z,25.8
2018-08-17T01:20:49.411Z,25.7
2018-08-17T01:21:39.475Z,25.7
2018-08-17T01:22:29.550Z,25.7
2018-08-17T01:23:19.607Z,25.7
2018-08-17T01:24:09.401Z,25.8
2018-08-17T01:24:59.735Z,25.8
2018-08-17T01:25:49.811Z,25.7
2018-08-17T01:26:39.600Z,25.8
2018-08-17T01:27:29.931Z,25.8
2018-08-17T01:28:19.713Z,25.7
2018-08-17T01:29:09.792Z,25.8
2018-08-17T01:30:00.120Z,25.7
2018-08-17T01:30:50.260Z,25.8
2018-08-17T01:31:40.260Z,25.7
2018-08-17T01:32:30.334Z,25.8
2018-08-17T01:33:20.385Z,25.8
2018-08-17T01:34:10.216Z,25.7
2018-08-17T01:35:00.232Z,25.8
2018-08-17T01:35:50.306Z,25.7
2018-08-17T01:36:40.648Z,25.8
2018-08-17T01:37:30.710Z,25.8
2018-08-17T01:38:20.785Z,25.7
2018-08-17T01:39:10.854Z,25.8
2018-08-17T01:40:00.901Z,25.7
2018-08-17T01:40:50.968Z,25.8
2018-08-17T01:41:41.022Z,25.7
2018-08-17T01:42:31.090Z,25.8
2018-08-17T01:43:21.156Z,25.8
2018-08-17T01:44:10.946Z,25.8
2018-08-17T01:45:01.312Z,25.8
2018-08-17T01:45:51.354Z,25.7
2018-08-17T01:46:41.153Z,25.8
2018-08-17T01:47:31.486Z,25.8
2018-08-17T01:48:21.273Z,25.7
2018-08-17T01:49:11.605Z,25.8
2018-08-17T01:50:01.401Z,25.8
2018-08-17T01:50:51.755Z,25.8
2018-08-17T01:51:41.823Z,25.8
2018-08-17T01:52:31.883Z,25.8
2018-08-17T01:53:21.669Z,25.7
2018-08-17T01:54:11.992Z,25.8
2018-08-17T01:55:02.066Z,25.8
2018-08-17T01:55:52.128Z,25.7
2018-08-17T01:56:41.913Z,25.7
2018-08-17T01:57:31.692Z,25.8
2018-08-17T01:58:22.040Z,25.8
2018-08-17T01:59:12.119Z,25.7
2018-08-17T02:00:02.463Z,25.8
2018-08-17T02:00:52.528Z,25.8
2018-08-17T02:01:42.606Z,25.8
2018-08-17T02:02:32.365Z,25.8
2018-08-17T02:03:22.745Z,25.8
2018-08-17T02:04:12.790Z,25.7
2018-08-17T02:05:02.837Z,25.7
2018-08-17T02:05:52.917Z,25.8
2018-08-17T02:06:42.692Z,25.8
2018-08-17T02:07:32.765Z,25.8
2018-08-17T02:08:23.099Z,25.7
2018-08-17T02:09:13.160Z,25.8
2018-08-17T02:10:03.230Z,25.8
2018-08-17T02:10:53.026Z,25.7
2018-08-17T02:11:43.365Z,25.8
2018-08-17T02:12:33.445Z,25.7
2018-08-17T02:13:23.208Z,25.8
2018-08-17T02:14:13.274Z,25.8
2018-08-17T02:15:03.337Z,25.8
2018-08-17T02:15:53.703Z,25.8
2018-08-17T02:16:43.458Z,25.8
2018-08-17T02:17:33.530Z,25.8
2018-08-17T02:18:23.604Z,25.8
2018-08-17T02:19:13.654Z,25.8
2018-08-17T02:20:04.023Z,25.8
2018-08-17T02:20:54.065Z,25.8
2018-08-17T02:21:44.127Z,25.8
2018-08-17T02:22:34.192Z,25.8
2018-08-17T02:23:23.981Z,25.8
2018-08-17T02:24:14.328Z,25.8
2018-08-17T02:25:04.114Z,25.8
2018-08-17T02:25:54.452Z,25.7
2018-08-17T02:26:44.520Z,25.8
2018-08-17T02:27:34.603Z,25.8
2018-08-17T02:28:24.651Z,25.8
2018-08-17T02:29:14.446Z,25.8
2018-08-17T02:30:04.497Z,25.8
2018-08-17T02:30:54.561Z,25.8
2018-08-17T02:31:44.912Z,25.8
2018-08-17T02:32:34.988Z,25.8
2018-08-17T02:33:25.056Z,25.7
2018-08-17T02:34:15.103Z,25.8
2018-08-17T02:35:05.192Z,25.8
2018-08-17T02:35:55.239Z,25.8
2018-08-17T02:36:45.315Z,25.8
2018-08-17T02:37:35.381Z,25.8
2018-08-17T02:38:25.449Z,25.8
2018-08-17T02:39:15.515Z,25.8
2018-08-17T02:40:05.555Z,25.8
2018-08-17T02:40:55.692Z,25.8
2018-08-17T02:41:45.408Z,25.8
2018-08-17T02:42:35.751Z,25.8
2018-08-17T02:43:25.831Z,25.8
2018-08-17T02:44:15.894Z,25.8
2018-08-17T02:45:05.947Z,25.8
2018-08-17T02:45:56.023Z,25.8
2018-08-17T02:46:46.084Z,25.8
2018-08-17T02:47:35.874Z,25.8
2018-08-17T02:48:26.208Z,25.8
2018-08-17T02:49:16.264Z,25.8
2018-08-17T02:50:06.054Z,25.8
2018-08-17T02:50:56.129Z,25.8
2018-08-17T02:51:46.454Z,25.7
2018-08-17T02:52:36.264Z,25.8
2018-08-17T02:53:26.590Z,25.8
2018-08-17T02:54:16.656Z,25.8
2018-08-17T02:55:06.533Z,25.8
2018-08-17T02:55:56.796Z,25.8
2018-08-17T02:56:46.569Z,25.8
2018-08-17T02:57:36.928Z,25.8
2018-08-17T02:58:26.699Z,25.8
2018-08-17T02:59:17.054Z,25.8
2018-08-17T03:00:07.131Z,25.8
2018-08-17T03:00:56.895Z,25.8
2018-08-17T03:01:47.230Z,25.8
2018-08-17T03:02:37.017Z,25.8
2018-08-17T03:03:27.101Z,25.8
2018-08-17T03:04:17.433Z,25.8
2018-08-17T03:05:07.514Z,25.8
2018-08-17T03:05:57.289Z,25.8
2018-08-17T03:06:47.641Z,25.8
2018-08-17T03:07:37.421Z,25.8
2018-08-17T03:08:27.747Z,25.8
2018-08-17T03:09:17.821Z,25.8
2018-08-17T03:10:07.890Z,25.8
2018-08-17T03:10:57.669Z,25.8
2018-08-17T03:11:48.041Z,25.8
2018-08-17T03:12:38.076Z,25.8
2018-08-17T03:13:27.885Z,25.8
2018-08-17T03:14:18.229Z,25.8
2018-08-17T03:15:08.295Z,25.8
2018-08-17T03:15:58.338Z,25.8
2018-08-17T03:16:47.846Z,25.8
2018-08-17T03:17:38.473Z,25.8
2018-08-17T03:18:28.270Z,25.8
2018-08-17T03:19:18.602Z,25.8
2018-08-17T03:20:08.675Z,25.8
2018-08-17T03:20:58.463Z,25.8
2018-08-17T03:21:48.806Z,25.8
2018-08-17T03:22:38.582Z,25.8
2018-08-17T03:23:28.932Z,25.8
2018-08-17T03:24:18.703Z,25.8
2018-08-17T03:25:09.060Z,25.8
2018-08-17T03:25:59.128Z,25.8
2018-08-17T03:26:49.185Z,25.8
2018-08-17T03:27:39.234Z,25.8
2018-08-17T03:28:29.322Z,25.8
2018-08-17T03:29:19.362Z,25.8
2018-08-17T03:30:09.458Z,25.8
2018-08-17T03:30:59.228Z,25.8
2018-08-17T03:31:49.556Z,25.8
2018-08-17T03:32:39.338Z,25.8
2018-08-17T03:33:29.683Z,25.8
2018-08-17T03:34:19.751Z,25.8
2018-08-17T03:35:09.531Z,25.8
2018-08-17T03:35:59.928Z,25.8
2018-08-17T03:36:49.951Z,25.8
2018-08-17T03:37:40.025Z,25.8
2018-08-17T03:38:29.789Z,25.8
2018-08-17T03:39:19.874Z,25.8
2018-08-17T03:40:10.199Z,25.8
2018-08-17T03:41:00.006Z,25.8
2018-08-17T03:41:50.335Z,25.8
2018-08-17T03:42:40.437Z,25.8
2018-08-17T03:43:30.468Z,25.8
2018-08-17T03:44:20.530Z,25.8
2018-08-17T03:45:10.331Z,25.8
2018-08-17T03:46:00.389Z,25.8
2018-08-17T03:46:50.725Z,25.8
2018-08-17T03:47:40.519Z,25.8
2018-08-17T03:48:30.873Z,25.8
2018-08-17T03:49:20.645Z,25.8
2018-08-17T03:50:10.996Z,25.8
2018-08-17T03:51:01.056Z,25.7
2018-08-17T03:51:51.121Z,25.8
2018-08-17T03:52:41.196Z,25.8
2018-08-17T03:53:30.963Z,25.8
2018-08-17T03:54:21.310Z,25.8
2018-08-17T03:55:11.381Z,25.8
2018-08-17T03:56:01.448Z,25.8
2018-08-17T03:56:51.515Z,25.8
2018-08-17T03:57:41.296Z,25.8
2018-08-17T03:58:31.637Z,25.8
2018-08-17T03:59:21.705Z,25.8
2018-08-17T04:00:11.479Z,25.8
2018-08-17T04:01:01.831Z,25.8
2018-08-17T04:01:51.895Z,25.8
2018-08-17T04:02:41.944Z,25.8
2018-08-17T04:03:31.737Z,25.8
2018-08-17T04:04:21.791Z,25.8
2018-08-17T04:05:12.145Z,25.8
2018-08-17T04:06:02.223Z,25.8
2018-08-17T04:06:51.994Z,25.8
2018-08-17T04:07:42.337Z,25.8
2018-08-17T04:08:32.428Z,25.8
2018-08-17T04:09:22.471Z,25.8
2018-08-17T04:10:12.526Z,25.8
2018-08-17T04:11:02.586Z,25.8
2018-08-17T04:11:52.101Z,25.8
2018-08-17T04:12:42.518Z,25.8
2018-08-17T04:13:32.802Z,25.8
2018-08-17T04:14:22.873Z,25.8
2018-08-17T04:15:12.632Z,25.8
2018-08-17T04:16:02.985Z,25.8
2018-08-17T04:16:53.037Z,25.8
2018-08-17T04:17:43.146Z,25.8
2018-08-17T04:18:33.171Z,25.8
2018-08-17T04:19:23.251Z,25.8
2018-08-17T04:20:13.317Z,25.8
2018-08-17T04:21:03.380Z,25.8
2018-08-17T04:21:53.444Z,25.8
2018-08-17T04:22:43.503Z,25.8
2018-08-17T04:23:33.585Z,25.8
2018-08-17T04:24:23.364Z,25.8
2018-08-17T04:25:13.709Z,25.8
2018-08-17T04:26:03.758Z,25.8
2018-08-17T04:26:53.552Z,25.8
2018-08-17T04:27:43.617Z,25.8
2018-08-17T04:28:33.965Z,25.8
2018-08-17T04:29:24.014Z,25.8
2018-08-17T04:30:14.113Z,25.8
2018-08-17T04:31:04.154Z,25.8
2018-08-17T04:31:54.219Z,25.8
2018-08-17T04:32:44.276Z,25.8
2018-08-17T04:33:34.337Z,25.8
2018-08-17T04:34:24.414Z,25.8
2018-08-17T04:35:14.203Z,25.8
2018-08-17T04:36:04.545Z,25.8
2018-08-17T04:36:54.597Z,25.8
2018-08-17T04:37:44.669Z,25.8
2018-08-17T04:38:34.727Z,25.8
2018-08-17T04:39:24.776Z,25.8
2018-08-17T04:40:14.839Z,25.8
2018-08-17T04:41:04.904Z,25.8
2018-08-17T04:41:54.968Z,25.8
2018-08-17T04:42:45.035Z,25.8
2018-08-17T04:43:34.849Z,25.8
2018-08-17T04:44:24.906Z,25.8
2018-08-17T04:45:15.241Z,25.8
2018-08-17T04:46:05.008Z,25.8
2018-08-17T04:46:55.346Z,25.8
2018-08-17T04:47:45.420Z,25.8
2018-08-17T04:48:35.494Z,25.8
2018-08-17T05:06:48.915Z,25.5
2018-08-17T05:07:47.217Z,25.5
2018-08-17T05:08:37.026Z,25.4
2018-08-17T05:09:26.858Z,25.4
2018-08-17T05:10:16.725Z,25.4
2018-08-17T05:11:06.785Z,25.4
2018-08-17T05:11:56.565Z,25.4
2018-08-17T05:12:46.908Z,25.4
2018-08-17T05:13:36.982Z,25.4
2018-08-17T05:14:26.766Z,25.4
2018-08-17T05:15:17.140Z,25.4
2018-08-17T05:16:07.161Z,25.3
2018-08-17T05:16:57.233Z,25.3
2018-08-17T05:17:47.300Z,25.3
2018-08-17T05:18:37.367Z,25.3
2018-08-17T05:19:27.422Z,25.3
2018-08-17T05:20:17.500Z,25.3
2018-08-17T05:21:07.592Z,25.3
2018-08-17T05:21:57.674Z,25.3
2018-08-17T05:22:47.684Z,25.3
2018-08-17T05:23:37.468Z,25.3
2018-08-17T05:24:27.833Z,25.3
2018-08-17T05:25:17.609Z,25.3
2018-08-17T05:26:07.939Z,25.3
2018-08-17T05:26:58.008Z,25.3
2018-08-17T05:27:48.069Z,25.3
2018-08-17T05:28:38.157Z,25.2
2018-08-17T05:29:27.931Z,25.2
2018-08-17T05:30:18.261Z,25.2
2018-08-17T05:31:08.058Z,25.2
2018-08-17T05:31:58.410Z,25.2
2018-08-17T05:32:48.461Z,25.2
2018-08-17T05:33:38.550Z,25.1
2018-08-17T05:34:28.295Z,25.1
2018-08-17T05:35:18.638Z,25.1
2018-08-17T05:36:08.713Z,25.1
2018-08-17T05:36:58.496Z,25.1
2018-08-17T05:37:48.831Z,25.1
2018-08-17T05:38:38.897Z,25.1
2018-08-17T05:39:28.681Z,25.1
2018-08-17T05:40:18.763Z,25.1
2018-08-17T05:41:09.094Z,25.1
2018-08-17T05:41:59.153Z,25.1
2018-08-17T05:42:48.959Z,25.1
2018-08-17T05:43:39.290Z,25.1
2018-08-17T05:44:29.355Z,25.1
2018-08-17T05:45:19.139Z,25
2018-08-17T05:46:09.483Z,25
2018-08-17T05:46:59.537Z,25
2018-08-17T05:47:49.608Z,25
2018-08-17T05:48:39.396Z,25
2018-08-17T05:49:29.751Z,25
2018-08-17T05:50:19.535Z,25
2018-08-17T05:51:09.868Z,25
2018-08-17T05:51:59.659Z,25
2018-08-17T05:52:50.041Z,25
2018-08-17T05:53:40.070Z,25
2018-08-17T05:54:30.139Z,25
2018-08-17T05:55:20.197Z,25
2018-08-17T05:56:10.262Z,25
2018-08-17T05:57:00.333Z,25
2018-08-17T05:57:50.390Z,24.9
2018-08-17T05:58:40.180Z,24.9
2018-08-17T05:59:30.531Z,24.9
2018-08-17T06:00:20.588Z,24.9
2018-08-17T06:01:10.382Z,24.9
2018-08-17T06:02:00.733Z,24.9
2018-08-17T06:02:51.017Z,25
2018-08-17T06:03:40.845Z,24.9
2018-08-17T06:04:30.628Z,24.9
2018-08-17T06:05:20.702Z,24.9
2018-08-17T06:06:11.033Z,24.9
2018-08-17T06:07:01.096Z,24.9
2018-08-17T06:07:50.890Z,24.9
2018-08-17T06:08:41.231Z,24.9
2018-08-17T06:09:31.013Z,24.9
2018-08-17T06:10:21.377Z,24.9
2018-08-17T06:11:12.116Z,24.9
2018-08-17T06:12:01.477Z,24.9
2018-08-17T06:12:51.261Z,24.9
2018-08-17T06:13:41.611Z,24.9
2018-08-17T06:14:31.716Z,24.9
2018-08-17T06:15:21.738Z,25
2018-08-17T06:16:11.797Z,24.9
2018-08-17T06:17:01.871Z,25
2018-08-17T06:17:51.928Z,24.9
2018-08-17T06:18:41.993Z,24.9
2018-08-17T06:19:32.058Z,25
2018-08-17T06:20:22.115Z,25
2018-08-17T06:21:12.203Z,24.9
2018-08-17T06:22:02.250Z,25
2018-08-17T06:22:52.312Z,24.9
2018-08-17T06:23:42.375Z,25
2018-08-17T06:24:32.445Z,25
2018-08-17T06:25:22.511Z,25
2018-08-17T06:26:12.597Z,24.9
2018-08-17T06:27:02.360Z,24.9
2018-08-17T06:27:52.704Z,25
2018-08-17T06:28:42.775Z,25
2018-08-17T06:29:32.558Z,25
2018-08-17T06:30:22.638Z,25
2018-08-17T06:31:12.684Z,25
2018-08-17T06:32:02.747Z,25
2018-08-17T06:32:53.091Z,25
2018-08-17T06:33:43.156Z,25
2018-08-17T06:34:32.940Z,25
2018-08-17T06:35:23.287Z,25
2018-08-17T06:36:13.266Z,25
2018-08-17T06:37:03.279Z,25
2018-08-17T06:37:53.489Z,25
2018-08-17T06:38:43.575Z,25
2018-08-17T06:39:33.619Z,25
2018-08-17T06:40:23.685Z,25
2018-08-17T06:41:13.735Z,25
2018-08-17T06:42:03.798Z,25.1
2018-08-17T06:42:53.867Z,25.1
2018-08-17T06:43:43.669Z,25.1
2018-08-17T06:44:34.003Z,25.1
2018-08-17T06:45:24.064Z,25.1
2018-08-17T06:46:14.110Z,25.1
2018-08-17T06:47:04.179Z,25.1
2018-08-17T06:47:54.262Z,25.1
2018-08-17T06:48:44.027Z,25.1
2018-08-17T06:49:34.379Z,25.1
2018-08-17T06:50:24.435Z,25.1
2018-08-17T06:51:14.725Z,25.1
2018-08-17T06:52:04.556Z,25.1
2018-08-17T06:52:54.624Z,25.1
2018-08-17T06:53:44.693Z,25.1
2018-08-17T06:54:34.758Z,25.1
2018-08-17T06:55:24.867Z,25.1
2018-08-17T06:56:14.895Z,25.1
2018-08-17T06:57:05.030Z,25.1
2018-08-17T06:57:55.029Z,25.2
2018-08-17T06:58:45.079Z,25.1
2018-08-17T06:59:35.180Z,25.2
2018-08-17T07:00:24.944Z,25.2
2018-08-17T07:01:15.269Z,25.2
2018-08-17T07:02:05.353Z,25.2
2018-08-17T07:02:55.435Z,25.2
2018-08-17T07:03:45.200Z,25.2
2018-08-17T07:04:35.262Z,25.2
2018-08-17T07:05:25.626Z,25.2
2018-08-17T07:06:15.667Z,25.2
2018-08-17T07:07:05.739Z,25.2
2018-08-17T07:07:55.794Z,25.2
2018-08-17T07:08:46.320Z,25.2
2018-08-17T07:09:36.303Z,25.3
2018-08-17T07:10:25.706Z,25.2
2018-08-17T07:11:16.074Z,25.3
2018-08-17T07:12:06.119Z,25.2
2018-08-17T07:12:56.189Z,25.2
2018-08-17T07:13:46.253Z,25.2
2018-08-17T07:14:36.338Z,25.3
2018-08-17T07:15:26.099Z,25.3
2018-08-17T07:16:16.156Z,25.3
2018-08-17T07:17:06.521Z,25.3
2018-08-17T07:17:56.593Z,25.3
2018-08-17T07:18:46.643Z,25.3
2018-08-17T07:19:36.702Z,25.3
2018-08-17T07:20:26.768Z,25.3
2018-08-17T07:21:16.835Z,25.3
2018-08-17T07:22:06.904Z,25.3
2018-08-17T07:22:56.966Z,25.3
2018-08-17T07:23:47.016Z,25.3
2018-08-17T07:24:37.083Z,25.3
2018-08-17T07:25:27.156Z,25.3
2018-08-17T07:26:16.931Z,25.3
2018-08-17T07:27:07.278Z,25.3
2018-08-17T07:27:57.910Z,25.3
2018-08-17T07:28:47.124Z,25.3
2018-08-17T07:29:37.485Z,25.3
2018-08-17T07:30:26.981Z,25.3
2018-08-17T07:31:17.614Z,25.3
2018-08-17T07:32:07.659Z,25.3
2018-08-17T07:32:57.521Z,25.3
2018-08-17T07:33:47.783Z,25.3
2018-08-17T07:34:37.860Z,25.3
2018-08-17T07:35:27.696Z,25.3
2018-08-17T07:36:17.715Z,25.3
2018-08-17T07:37:08.073Z,25.3
2018-08-17T07:37:58.117Z,25.3
2018-08-17T07:38:47.907Z,25.3
2018-08-17T07:39:38.252Z,25.4
2018-08-17T07:40:28.315Z,25.4
2018-08-17T07:41:18.395Z,25.4
2018-08-17T07:42:08.463Z,25.4
2018-08-17T07:42:58.512Z,25.4
2018-08-17T07:43:48.606Z,25.4
2018-08-17T07:44:38.644Z,25.4
2018-08-17T07:45:28.720Z,25.4
2018-08-17T07:46:18.792Z,25.4
2018-08-17T07:47:08.869Z,25.4
2018-08-17T07:47:59.238Z,25.4
2018-08-17T07:48:48.974Z,25.4
2018-08-17T07:49:39.065Z,25.4
2018-08-17T07:50:28.832Z,25.4
2018-08-17T07:51:19.162Z,25.4
2018-08-17T07:52:09.273Z,25.4
2018-08-17T07:52:59.013Z,25.4
2018-08-17T07:53:49.357Z,25.4
2018-08-17T07:54:39.429Z,25.4
2018-08-17T07:55:29.504Z,25.4
2018-08-17T07:56:19.263Z,25.4
2018-08-17T07:57:09.338Z,25.4
2018-08-17T07:57:59.690Z,25.5
2018-08-17T07:58:49.880Z,25.5
2018-08-17T07:59:39.814Z,25.5
2018-08-17T08:00:29.583Z,25.5
2018-08-17T08:01:19.652Z,25.5
2018-08-17T08:02:10.004Z,25.5
2018-08-17T08:03:00.053Z,25.5
2018-08-17T08:03:50.119Z,25.5
2018-08-17T08:04:40.198Z,25.5
2018-08-17T08:05:30.302Z,25.5
2018-08-17T08:06:20.324Z,25.5
2018-08-17T08:07:10.388Z,25.6
2018-08-17T08:08:00.441Z,25.5
2018-08-17T08:08:50.509Z,25.5
2018-08-17T08:09:40.575Z,25.5
2018-08-17T08:10:30.641Z,25.5
2018-08-17T08:11:20.726Z,25.6
2018-08-17T08:12:10.766Z,25.5
2018-08-17T08:13:00.574Z,25.6
2018-08-17T08:13:51.112Z,25.6
2018-08-17T08:14:41.149Z,25.6
2018-08-17T08:15:31.051Z,25.6
2018-08-17T08:16:21.112Z,25.6
2018-08-17T08:17:11.174Z,25.6
2018-08-17T08:18:01.241Z,25.6
2018-08-17T08:18:51.312Z,25.6
2018-08-17T08:19:41.365Z,25.6
2018-08-17T08:20:31.889Z,25.6
2018-08-17T08:21:21.501Z,25.6
2018-08-17T08:22:11.295Z,25.6
2018-08-17T08:23:01.637Z,25.6
2018-08-17T08:23:51.714Z,25.6
2018-08-17T08:24:41.757Z,25.6
2018-08-17T08:25:31.825Z,25.6
2018-08-17T08:26:21.887Z,25.6
2018-08-17T08:27:11.669Z,25.6
2018-08-17T08:28:02.050Z,25.6
2018-08-17T08:28:52.085Z,25.6
2018-08-17T08:29:41.864Z,25.6
2018-08-17T08:30:32.215Z,25.6
2018-08-17T08:31:22.281Z,25.6
2018-08-17T08:32:12.356Z,25.6
2018-08-17T08:33:02.417Z,25.6
2018-08-17T08:33:52.466Z,25.6
2018-08-17T08:34:42.551Z,25.6
2018-08-17T08:35:32.591Z,25.6
2018-08-17T08:36:22.667Z,25.6
2018-08-17T08:37:12.447Z,25.6
2018-08-17T08:38:02.788Z,25.6
2018-08-17T08:38:52.864Z,25.6
2018-08-17T08:39:42.695Z,25.6
2018-08-17T08:40:33.001Z,25.6
2018-08-17T08:41:23.059Z,25.6
2018-08-17T08:42:13.190Z,25.6
2018-08-17T08:43:03.196Z,25.6
2018-08-17T08:43:53.258Z,25.6
2018-08-17T08:44:43.312Z,25.6
2018-08-17T08:45:33.620Z,25.6
2018-08-17T08:46:23.165Z,25.6
2018-08-17T08:47:13.231Z,25.6
2018-08-17T08:48:03.598Z,25.6
2018-08-17T08:48:53.643Z,25.6
2018-08-17T08:49:43.707Z,25.6
2018-08-17T08:50:33.487Z,25.6
2018-08-17T08:51:23.848Z,25.6
2018-08-17T08:52:13.910Z,25.7
2018-08-17T08:53:03.981Z,25.6
2018-08-17T08:53:54.044Z,25.6
2018-08-17T08:54:44.117Z,25.6
2018-08-17T08:55:34.177Z,25.6
2018-08-17T08:56:24.032Z,25.6
2018-08-17T08:57:14.300Z,25.7
2018-08-17T08:58:04.075Z,25.7
2018-08-17T08:58:54.431Z,25.6
2018-08-17T08:59:44.492Z,25.7
2018-08-17T09:00:34.576Z,25.7
2018-08-17T09:01:24.628Z,25.7
2018-08-17T09:02:14.687Z,25.7
2018-08-17T09:03:04.758Z,25.7
2018-08-17T09:03:54.814Z,25.7
2018-08-17T09:04:44.881Z,25.7
2018-08-17T09:21:11.604Z,25.8
2018-08-17T09:22:00.817Z,25.8
2018-08-17T09:22:50.659Z,25.8
2018-08-17T09:23:40.942Z,25.8
2018-08-17T09:24:31.007Z,25.8
2018-08-17T09:25:20.788Z,25.8
2018-08-17T09:26:11.135Z,25.8
2018-08-17T09:27:01.191Z,25.8
2018-08-17T09:27:51.327Z,25.8
2018-08-17T09:28:41.326Z,25.8
2018-08-17T09:29:31.423Z,25.8
2018-08-17T09:30:21.484Z,25.8
2018-08-17T09:31:11.529Z,25.8
2018-08-17T09:32:01.606Z,25.8
2018-08-17T09:32:51.377Z,25.8
2018-08-17T09:33:41.721Z,25.8
2018-08-17T09:34:31.794Z,25.8
2018-08-17T09:35:21.891Z,25.8
2018-08-17T09:36:12.055Z,25.8
2018-08-17T09:37:02.033Z,25.8
2018-08-17T09:37:52.072Z,25.8
2018-08-17T09:38:41.837Z,25.8
2018-08-17T09:39:31.905Z,25.8
2018-08-17T09:40:22.265Z,25.8
2018-08-17T09:41:12.047Z,25.8
2018-08-17T09:42:02.223Z,25.8
2018-08-17T09:42:52.441Z,25.8
2018-08-17T09:43:42.238Z,25.8
2018-08-17T09:44:32.575Z,25.8
2018-08-17T09:45:22.359Z,25.8
2018-08-17T09:46:12.720Z,25.8
2018-08-17T09:47:02.770Z,25.8
2018-08-17T09:47:52.542Z,25.8
2018-08-17T09:48:42.899Z,25.8
2018-08-17T09:49:32.957Z,25.8
2018-08-17T09:50:23.014Z,25.8
2018-08-17T09:51:13.241Z,25.8
2018-08-17T09:52:03.153Z,25.8
2018-08-17T09:52:53.233Z,25.8
2018-08-17T09:53:43.281Z,25.8
2018-08-17T09:54:33.364Z,25.8
2018-08-17T09:55:23.419Z,25.8
2018-08-17T09:56:13.482Z,25.8
2018-08-17T09:57:03.538Z,25.8
2018-08-17T09:57:53.631Z,25.8
2018-08-17T09:58:43.693Z,25.8
2018-08-17T09:59:33.757Z,25.8
2018-08-17T10:00:23.528Z,25.8
2018-08-17T10:01:13.611Z,25.8
2018-08-17T10:02:03.935Z,25.8
2018-08-17T10:02:54.000Z,25.8
2018-08-17T10:03:43.644Z,25.8
2018-08-17T10:04:34.145Z,25.8
2018-08-17T10:05:24.195Z,25.8
2018-08-17T10:06:14.005Z,25.8
2018-08-17T10:07:04.062Z,25.8
2018-08-17T10:07:54.409Z,25.8
2018-08-17T10:08:44.185Z,25.8
2018-08-17T10:09:34.476Z,25.8
2018-08-17T10:10:24.624Z,25.8
2018-08-17T10:11:14.687Z,25.8
2018-08-17T10:12:04.733Z,25.9
2018-08-17T10:12:54.835Z,25.8
2018-08-17T10:13:44.887Z,25.8
2018-08-17T10:14:34.942Z,25.8
2018-08-17T10:15:24.705Z,25.8
2018-08-17T10:16:15.070Z,25.8
2018-08-17T10:17:05.137Z,25.9
2018-08-17T10:17:55.009Z,25.8
2018-08-17T10:18:44.972Z,25.8
2018-08-17T10:19:35.046Z,25.8
2018-08-17T10:20:25.108Z,25.8
2018-08-17T10:21:16.540Z,25.8
2018-08-17T10:22:06.515Z,25.8
2018-08-17T10:22:55.596Z,25.8
2018-08-17T10:23:45.655Z,25.8
2018-08-17T10:24:35.723Z,25.8
2018-08-17T10:25:25.768Z,25.8
2018-08-17T10:26:15.835Z,25.8
2018-08-17T10:27:05.622Z,25.9
2018-08-17T10:27:55.978Z,25.9
2018-08-17T10:28:45.775Z,25.8
2018-08-17T10:29:36.100Z,25.8
2018-08-17T10:30:26.169Z,25.9
2018-08-17T10:31:15.952Z,25.8
2018-08-17T10:32:06.315Z,25.8
2018-08-17T10:32:56.389Z,25.8
2018-08-17T10:33:46.442Z,25.8
2018-08-17T10:34:36.217Z,25.8
2018-08-17T10:35:26.297Z,25.8
2018-08-17T10:36:16.628Z,25.8
2018-08-17T10:37:06.695Z,25.8
2018-08-17T10:37:56.758Z,25.8
2018-08-17T10:38:46.834Z,25.8
2018-08-17T10:39:36.626Z,25.8
2018-08-17T10:40:26.965Z,25.8
2018-08-17T10:41:17.021Z,25.8
2018-08-17T10:42:07.139Z,25.8
2018-08-17T10:42:57.162Z,25.8
2018-08-17T10:43:46.963Z,25.8
2018-08-17T10:44:37.293Z,25.8
2018-08-17T10:45:27.376Z,25.8
2018-08-17T10:46:17.435Z,25.8
2018-08-17T10:47:07.497Z,25.8
2018-08-17T10:47:57.549Z,25.8
2018-08-17T10:48:47.790Z,25.8
2018-08-17T10:49:37.409Z,25.8
2018-08-17T10:50:27.757Z,25.8
2018-08-17T10:51:17.842Z,25.8
2018-08-17T10:52:07.882Z,25.8
2018-08-17T10:52:57.944Z,25.8
2018-08-17T10:53:48.007Z,25.8
2018-08-17T10:54:38.069Z,25.8
2018-08-17T10:55:27.945Z,25.8
2018-08-17T10:56:18.294Z,25.8
2018-08-17T10:57:08.278Z,25.8
2018-08-17T10:57:58.336Z,25.8
2018-08-17T10:58:48.396Z,25.8
2018-08-17T10:59:38.464Z,25.8
2018-08-17T11:00:28.524Z,25.8
2018-08-17T11:01:18.601Z,25.8
2018-08-17T11:02:08.651Z,25.8
2018-08-17T11:02:58.720Z,25.8
2018-08-17T11:03:48.787Z,25.8
2018-08-17T11:04:38.862Z,25.8
2018-08-17T11:05:28.916Z,25.8
2018-08-17T11:06:18.988Z,25.8
2018-08-17T11:07:09.040Z,25.8
2018-08-17T11:07:59.117Z,25.8
2018-08-17T11:08:49.177Z,25.8
2018-08-17T11:09:39.240Z,25.8
2018-08-17T11:10:29.024Z,25.8
2018-08-17T11:11:19.375Z,25.8
2018-08-17T11:12:09.439Z,25.8
2018-08-17T11:12:59.223Z,25.8
2018-08-17T11:13:49.567Z,25.8
2018-08-17T11:14:39.372Z,25.8
2018-08-17T11:15:29.532Z,25.8
2018-08-17T11:16:19.766Z,25.8
2018-08-17T11:17:09.991Z,25.8
2018-08-17T11:17:59.946Z,25.8
2018-08-17T11:18:49.988Z,25.8
2018-08-17T11:19:40.039Z,25.8
2018-08-17T11:20:29.874Z,25.8
2018-08-17T11:21:20.170Z,25.8
2018-08-17T11:22:10.230Z,25.8
2018-08-17T11:23:00.067Z,25.8
2018-08-17T11:23:50.087Z,25.8
2018-08-17T11:24:40.425Z,25.8
2018-08-17T11:25:30.499Z,25.8
2018-08-17T11:26:20.587Z,25.8
2018-08-17T11:27:10.634Z,25.8
2018-08-17T11:28:00.707Z,25.8
2018-08-17T11:28:50.754Z,25.8
2018-08-17T11:29:40.820Z,25.8
2018-08-17T11:30:30.939Z,25.8
2018-08-17T11:31:20.955Z,25.8
2018-08-17T11:32:11.076Z,25.8
2018-08-17T11:33:01.079Z,25.8
2018-08-17T11:33:50.899Z,25.8
2018-08-17T11:34:41.217Z,25.8
2018-08-17T11:35:31.275Z,25.8
2018-08-17T11:36:21.336Z,25.8
2018-08-17T11:37:11.421Z,25.8
2018-08-17T11:38:01.466Z,25.8
2018-08-17T11:38:51.268Z,25.8
2018-08-17T11:39:41.337Z,25.8
2018-08-17T11:40:31.382Z,25.8
2018-08-17T11:41:21.499Z,25.8
2018-08-17T11:42:11.820Z,25.8
2018-08-17T11:43:01.298Z,25.8
2018-08-17T11:43:51.933Z,25.8
2018-08-17T11:44:41.998Z,25.8
2018-08-17T11:45:32.076Z,25.8
2018-08-17T11:46:22.126Z,25.8
2018-08-17T11:47:12.186Z,25.8
2018-08-17T11:48:02.272Z,25.8
2018-08-17T11:48:52.054Z,25.8
2018-08-17T11:49:42.378Z,25.8
2018-08-17T11:50:32.447Z,25.8
2018-08-17T11:51:22.519Z,25.8
2018-08-17T11:52:12.304Z,25.8
2018-08-17T11:53:02.392Z,25.8
2018-08-17T11:53:52.960Z,25.8
2018-08-17T11:54:42.835Z,25.7
2018-08-17T11:55:32.572Z,25.8
2018-08-17T11:56:22.640Z,25.8
2018-08-17T11:57:12.984Z,25.8
2018-08-17T11:58:02.763Z,25.8
2018-08-17T11:58:53.112Z,25.8
2018-08-17T11:59:42.906Z,25.8
2018-08-17T12:00:33.249Z,25.8
2018-08-17T12:01:23.041Z,25.8
2018-08-17T12:02:13.385Z,25.8
2018-08-17T12:03:03.443Z,25.8
2018-08-17T12:03:53.226Z,25.8
2018-08-17T12:04:43.578Z,25.8
2018-08-17T12:05:33.651Z,25.8
2018-08-17T12:06:23.422Z,25.8
2018-08-17T12:07:13.785Z,25.8
2018-08-17T12:08:04.025Z,25.7
2018-08-17T12:08:53.911Z,25.8
2018-08-17T12:09:43.962Z,25.8
2018-08-17T12:10:33.758Z,25.7
2018-08-17T12:11:24.089Z,25.8
2018-08-17T12:12:14.146Z,25.8
2018-08-17T12:13:03.945Z,25.8
2018-08-17T12:13:54.000Z,25.8
2018-08-17T12:14:44.359Z,25.8
2018-08-17T12:15:34.134Z,25.8
2018-08-17T12:16:24.469Z,25.8
2018-08-17T12:17:14.542Z,25.8
2018-08-17T12:18:04.604Z,25.8
2018-08-17T12:18:54.499Z,25.8